sensor_id;sensor_type;location;lat;lon;timestamp;P1;durP1;ratioP1;P2;durP2;ratioP2
43962;SDS011;29622;45.534;9.242;2023-05-10T00:04:41;11.65;;;6.50;;
43962;SDS011;29622;45.534;9.242;2023-05-10T00:09:42;12.88;;;6.97;;
43962;SDS011;29622;45.534;9.242;2023-05-10T00:14:43;9.65;;;5.53;;
43962;SDS011;29622;45.534;9.242;2023-05-10T00:19:44;12.25;;;7.68;;
43962;SDS011;29622;45.534;9.242;2023-05-10T00:24:44;9.98;;;5.63;;
43962;SDS011;29622;45.534;9.242;2023-05-10T00:29:45;16.60;;;8.25;;
43962;SDS011;29622;45.534;9.242;2023-05-10T00:34:45;12.80;;;7.68;;
43962;SDS011;29622;45.534;9.242;2023-05-10T00:39:46;11.98;;;7.88;;
43962;SDS011;29622;45.534;9.242;2023-05-10T00:44:47;14.48;;;7.78;;
43962;SDS011;29622;45.534;9.242;2023-05-10T00:49:47;15.50;;;7.88;;
43962;SDS011;29622;45.534;9.242;2023-05-10T00:54:49;9.73;;;6.78;;
43962;SDS011;29622;45.534;9.242;2023-05-10T00:59:51;9.55;;;4.75;;
43962;SDS011;29622;45.534;9.242;2023-05-10T01:04:52;12.40;;;7.93;;
43962;SDS011;29622;45.534;9.242;2023-05-10T01:09:53;14.85;;;7.30;;
43962;SDS011;29622;45.534;9.242;2023-05-10T01:14:53;11.25;;;6.93;;
43962;SDS011;29622;45.534;9.242;2023-05-10T01:19:54;10.88;;;7.20;;
43962;SDS011;29622;45.534;9.242;2023-05-10T01:35:44;10.40;;;7.13;;
43962;SDS011;29622;45.534;9.242;2023-05-10T01:41:24;10.65;;;6.28;;
43962;SDS011;29622;45.534;9.242;2023-05-10T01:46:36;10.18;;;5.55;;
43962;SDS011;29622;45.534;9.242;2023-05-10T01:51:48;8.57;;;5.55;;
43962;SDS011;29622;45.534;9.242;2023-05-10T01:57:00;8.48;;;5.13;;
43962;SDS011;29622;45.534;9.242;2023-05-10T02:02:05;7.57;;;5.00;;
43962;SDS011;29622;45.534;9.242;2023-05-10T02:07:07;6.18;;;4.00;;
43962;SDS011;29622;45.534;9.242;2023-05-10T02:12:09;6.18;;;3.28;;
43962;SDS011;29622;45.534;9.242;2023-05-10T02:17:13;7.85;;;3.22;;
43962;SDS011;29622;45.534;9.242;2023-05-10T02:22:14;5.50;;;3.10;;
43962;SDS011;29622;45.534;9.242;2023-05-10T02:27:16;11.40;;;3.90;;
43962;SDS011;29622;45.534;9.242;2023-05-10T02:32:20;6.53;;;4.05;;
43962;SDS011;29622;45.534;9.242;2023-05-10T02:37:22;7.50;;;3.83;;
43962;SDS011;29622;45.534;9.242;2023-05-10T02:42:26;9.48;;;4.65;;
43962;SDS011;29622;45.534;9.242;2023-05-10T02:47:28;6.97;;;3.08;;
43962;SDS011;29622;45.534;9.242;2023-05-10T02:52:30;17.20;;;4.63;;
43962;SDS011;29622;45.534;9.242;2023-05-10T02:57:41;6.25;;;4.05;;
43962;SDS011;29622;45.534;9.242;2023-05-10T03:02:54;6.90;;;4.32;;
43962;SDS011;29622;45.534;9.242;2023-05-10T03:07:55;8.73;;;4.22;;
43962;SDS011;29622;45.534;9.242;2023-05-10T03:13:16;5.90;;;3.47;;
43962;SDS011;29622;45.534;9.242;2023-05-10T03:18:33;12.20;;;3.80;;
43962;SDS011;29622;45.534;9.242;2023-05-10T03:23:57;5.13;;;2.83;;
43962;SDS011;29622;45.534;9.242;2023-05-10T03:29:00;11.32;;;4.43;;
43962;SDS011;29622;45.534;9.242;2023-05-10T03:34:02;6.90;;;3.53;;
43962;SDS011;29622;45.534;9.242;2023-05-10T03:39:03;7.38;;;3.50;;
43962;SDS011;29622;45.534;9.242;2023-05-10T03:44:04;9.90;;;3.65;;
43962;SDS011;29622;45.534;9.242;2023-05-10T03:49:05;5.57;;;3.17;;
43962;SDS011;29622;45.534;9.242;2023-05-10T03:54:06;7.72;;;3.35;;
43962;SDS011;29622;45.534;9.242;2023-05-10T03:59:07;9.77;;;3.42;;
43962;SDS011;29622;45.534;9.242;2023-05-10T04:04:09;10.32;;;3.60;;
43962;SDS011;29622;45.534;9.242;2023-05-10T04:09:10;7.95;;;3.10;;
43962;SDS011;29622;45.534;9.242;2023-05-10T04:14:10;7.30;;;3.10;;
43962;SDS011;29622;45.534;9.242;2023-05-10T04:19:11;7.18;;;3.38;;
43962;SDS011;29622;45.534;9.242;2023-05-10T04:24:12;4.70;;;2.28;;
43962;SDS011;29622;45.534;9.242;2023-05-10T04:29:12;5.63;;;3.65;;
43962;SDS011;29622;45.534;9.242;2023-05-10T04:34:13;11.80;;;3.08;;
43962;SDS011;29622;45.534;9.242;2023-05-10T04:39:13;5.43;;;2.80;;
43962;SDS011;29622;45.534;9.242;2023-05-10T04:44:14;7.57;;;2.92;;
43962;SDS011;29622;45.534;9.242;2023-05-10T04:49:14;14.40;;;4.47;;
43962;SDS011;29622;45.534;9.242;2023-05-10T04:54:15;6.13;;;2.58;;
43962;SDS011;29622;45.534;9.242;2023-05-10T04:59:16;6.55;;;3.67;;
43962;SDS011;29622;45.534;9.242;2023-05-10T05:04:17;5.45;;;2.50;;
43962;SDS011;29622;45.534;9.242;2023-05-10T05:09:17;10.52;;;4.03;;
43962;SDS011;29622;45.534;9.242;2023-05-10T05:14:18;10.90;;;3.45;;
43962;SDS011;29622;45.534;9.242;2023-05-10T05:19:20;8.35;;;3.60;;
43962;SDS011;29622;45.534;9.242;2023-05-10T05:24:21;14.10;;;3.80;;
43962;SDS011;29622;45.534;9.242;2023-05-10T05:29:22;8.60;;;3.58;;
43962;SDS011;29622;45.534;9.242;2023-05-10T05:34:22;12.77;;;3.30;;
43962;SDS011;29622;45.534;9.242;2023-05-10T05:39:24;6.45;;;3.30;;
43962;SDS011;29622;45.534;9.242;2023-05-10T05:44:24;8.18;;;3.35;;
43962;SDS011;29622;45.534;9.242;2023-05-10T05:49:25;6.32;;;3.22;;
43962;SDS011;29622;45.534;9.242;2023-05-10T05:54:26;10.73;;;4.10;;
43962;SDS011;29622;45.534;9.242;2023-05-10T05:59:27;11.80;;;4.47;;
43962;SDS011;29622;45.534;9.242;2023-05-10T06:04:28;6.65;;;3.95;;
43962;SDS011;29622;45.534;9.242;2023-05-10T06:09:29;18.25;;;8.75;;
43962;SDS011;29622;45.534;9.242;2023-05-10T06:14:29;9.13;;;5.35;;
43962;SDS011;29622;45.534;9.242;2023-05-10T06:19:30;12.52;;;5.88;;
43962;SDS011;29622;45.534;9.242;2023-05-10T06:24:31;12.27;;;5.78;;
43962;SDS011;29622;45.534;9.242;2023-05-10T06:29:31;21.45;;;7.15;;
43962;SDS011;29622;45.534;9.242;2023-05-10T06:34:32;29.67;;;9.65;;
43962;SDS011;29622;45.534;9.242;2023-05-10T06:39:33;15.85;;;7.13;;
43962;SDS011;29622;45.534;9.242;2023-05-10T06:44:33;13.27;;;6.85;;
43962;SDS011;29622;45.534;9.242;2023-05-10T06:49:34;9.75;;;4.95;;
43962;SDS011;29622;45.534;9.242;2023-05-10T06:54:35;8.77;;;3.58;;
43962;SDS011;29622;45.534;9.242;2023-05-10T06:59:36;8.27;;;3.78;;
43962;SDS011;29622;45.534;9.242;2023-05-10T07:04:36;11.95;;;5.82;;
43962;SDS011;29622;45.534;9.242;2023-05-10T07:09:37;11.77;;;3.50;;
43962;SDS011;29622;45.534;9.242;2023-05-10T07:14:37;11.75;;;3.70;;
43962;SDS011;29622;45.534;9.242;2023-05-10T07:19:38;6.57;;;3.80;;
43962;SDS011;29622;45.534;9.242;2023-05-10T07:24:38;12.75;;;3.78;;
43962;SDS011;29622;45.534;9.242;2023-05-10T07:29:40;6.95;;;3.78;;
43962;SDS011;29622;45.534;9.242;2023-05-10T07:34:41;8.15;;;3.85;;
43962;SDS011;29622;45.534;9.242;2023-05-10T07:39:41;13.15;;;4.75;;
43962;SDS011;29622;45.534;9.242;2023-05-10T07:44:42;14.18;;;6.30;;
43962;SDS011;29622;45.534;9.242;2023-05-10T07:49:43;9.50;;;2.88;;
43962;SDS011;29622;45.534;9.242;2023-05-10T07:54:43;8.38;;;3.58;;
43962;SDS011;29622;45.534;9.242;2023-05-10T07:59:44;9.27;;;4.13;;
43962;SDS011;29622;45.534;9.242;2023-05-10T08:04:45;8.52;;;3.88;;
43962;SDS011;29622;45.534;9.242;2023-05-10T08:09:45;7.20;;;4.03;;
43962;SDS011;29622;45.534;9.242;2023-05-10T08:14:47;6.30;;;3.47;;
43962;SDS011;29622;45.534;9.242;2023-05-10T08:19:48;5.93;;;2.97;;
43962;SDS011;29622;45.534;9.242;2023-05-10T08:24:48;6.25;;;2.92;;
43962;SDS011;29622;45.534;9.242;2023-05-10T08:29:49;7.88;;;3.63;;
43962;SDS011;29622;45.534;9.242;2023-05-10T08:34:49;5.07;;;2.72;;
43962;SDS011;29622;45.534;9.242;2023-05-10T08:39:51;14.07;;;2.60;;
43962;SDS011;29622;45.534;9.242;2023-05-10T08:44:52;11.15;;;2.83;;
43962;SDS011;29622;45.534;9.242;2023-05-10T08:49:54;13.95;;;3.50;;
43962;SDS011;29622;45.534;9.242;2023-05-10T08:54:55;8.55;;;3.28;;
43962;SDS011;29622;45.534;9.242;2023-05-10T08:59:56;4.32;;;2.90;;
43962;SDS011;29622;45.534;9.242;2023-05-10T09:04:56;29.00;;;5.80;;
43962;SDS011;29622;45.534;9.242;2023-05-10T09:09:57;5.78;;;3.15;;
43962;SDS011;29622;45.534;9.242;2023-05-10T09:14:59;9.80;;;4.65;;
43962;SDS011;29622;45.534;9.242;2023-05-10T09:20:01;6.90;;;3.40;;
43962;SDS011;29622;45.534;9.242;2023-05-10T09:30:08;11.38;;;3.35;;
43962;SDS011;29622;45.534;9.242;2023-05-10T09:35:10;12.10;;;4.35;;
43962;SDS011;29622;45.534;9.242;2023-05-10T09:40:15;8.25;;;4.28;;
43962;SDS011;29622;45.534;9.242;2023-05-10T09:45:20;7.50;;;2.78;;
43962;SDS011;29622;45.534;9.242;2023-05-10T09:50:22;4.68;;;2.38;;
43962;SDS011;29622;45.534;9.242;2023-05-10T09:55:23;5.30;;;2.63;;
43962;SDS011;29622;45.534;9.242;2023-05-10T10:00:25;5.35;;;2.13;;
43962;SDS011;29622;45.534;9.242;2023-05-10T10:05:30;9.75;;;2.38;;
43962;SDS011;29622;45.534;9.242;2023-05-10T10:10:32;3.70;;;2.10;;
43962;SDS011;29622;45.534;9.242;2023-05-10T10:15:34;6.30;;;3.20;;
43962;SDS011;29622;45.534;9.242;2023-05-10T10:20:35;7.82;;;2.67;;
43962;SDS011;29622;45.534;9.242;2023-05-10T10:25:37;5.57;;;2.60;;
43962;SDS011;29622;45.534;9.242;2023-05-10T10:30:42;3.17;;;2.03;;
43962;SDS011;29622;45.534;9.242;2023-05-10T10:35:45;12.05;;;3.42;;
43962;SDS011;29622;45.534;9.242;2023-05-10T10:40:47;4.25;;;2.00;;
43962;SDS011;29622;45.534;9.242;2023-05-10T10:51:10;5.90;;;2.05;;
43962;SDS011;29622;45.534;9.242;2023-05-10T10:56:13;5.40;;;2.88;;
43962;SDS011;29622;45.534;9.242;2023-05-10T11:01:16;4.28;;;2.78;;
43962;SDS011;29622;45.534;9.242;2023-05-10T11:06:17;7.20;;;3.00;;
43962;SDS011;29622;45.534;9.242;2023-05-10T11:11:32;7.82;;;3.03;;
43962;SDS011;29622;45.534;9.242;2023-05-10T11:16:41;4.93;;;2.90;;
43962;SDS011;29622;45.534;9.242;2023-05-10T11:21:44;7.85;;;2.97;;
43962;SDS011;29622;45.534;9.242;2023-05-10T11:27:11;5.10;;;2.40;;
43962;SDS011;29622;45.534;9.242;2023-05-10T11:32:12;4.97;;;2.25;;
43962;SDS011;29622;45.534;9.242;2023-05-10T11:37:13;4.10;;;2.35;;
43962;SDS011;29622;45.534;9.242;2023-05-10T11:42:14;7.80;;;2.42;;
43962;SDS011;29622;45.534;9.242;2023-05-10T11:47:15;4.93;;;2.50;;
43962;SDS011;29622;45.534;9.242;2023-05-10T11:52:15;5.07;;;2.38;;
43962;SDS011;29622;45.534;9.242;2023-05-10T11:57:19;5.43;;;2.15;;
43962;SDS011;29622;45.534;9.242;2023-05-10T12:02:20;8.48;;;2.25;;
43962;SDS011;29622;45.534;9.242;2023-05-10T12:07:21;4.15;;;2.42;;
43962;SDS011;29622;45.534;9.242;2023-05-10T12:12:22;5.10;;;2.42;;
43962;SDS011;29622;45.534;9.242;2023-05-10T12:17:26;5.15;;;2.22;;
43962;SDS011;29622;45.534;9.242;2023-05-10T12:22:28;5.65;;;2.05;;
43962;SDS011;29622;45.534;9.242;2023-05-10T12:27:32;3.88;;;2.10;;
43962;SDS011;29622;45.534;9.242;2023-05-10T12:32:39;4.22;;;2.50;;
43962;SDS011;29622;45.534;9.242;2023-05-10T12:37:42;4.20;;;2.42;;
43962;SDS011;29622;45.534;9.242;2023-05-10T12:42:43;4.13;;;2.10;;
43962;SDS011;29622;45.534;9.242;2023-05-10T12:47:46;3.15;;;2.00;;
43962;SDS011;29622;45.534;9.242;2023-05-10T12:52:47;4.55;;;2.38;;
43962;SDS011;29622;45.534;9.242;2023-05-10T12:57:48;4.63;;;2.22;;
43962;SDS011;29622;45.534;9.242;2023-05-10T13:02:48;5.07;;;1.80;;
43962;SDS011;29622;45.534;9.242;2023-05-10T13:07:49;5.20;;;1.83;;
43962;SDS011;29622;45.534;9.242;2023-05-10T13:12:50;8.70;;;2.35;;
43962;SDS011;29622;45.534;9.242;2023-05-10T13:17:50;4.22;;;2.53;;
43962;SDS011;29622;45.534;9.242;2023-05-10T13:22:51;5.90;;;2.00;;
43962;SDS011;29622;45.534;9.242;2023-05-10T13:27:52;6.72;;;1.80;;
43962;SDS011;29622;45.534;9.242;2023-05-10T13:32:53;5.95;;;2.30;;
43962;SDS011;29622;45.534;9.242;2023-05-10T13:37:53;5.18;;;2.30;;
43962;SDS011;29622;45.534;9.242;2023-05-10T13:42:56;5.35;;;2.38;;
43962;SDS011;29622;45.534;9.242;2023-05-10T13:47:57;6.68;;;2.50;;
43962;SDS011;29622;45.534;9.242;2023-05-10T13:52:58;6.90;;;3.00;;
43962;SDS011;29622;45.534;9.242;2023-05-10T13:57:58;11.90;;;2.90;;
43962;SDS011;29622;45.534;9.242;2023-05-10T14:02:59;6.40;;;2.58;;
43962;SDS011;29622;45.534;9.242;2023-05-10T14:08:00;6.50;;;2.80;;
43962;SDS011;29622;45.534;9.242;2023-05-10T14:13:01;6.35;;;2.78;;
43962;SDS011;29622;45.534;9.242;2023-05-10T14:18:03;7.22;;;2.85;;
43962;SDS011;29622;45.534;9.242;2023-05-10T14:23:03;5.95;;;2.50;;
43962;SDS011;29622;45.534;9.242;2023-05-10T14:28:04;4.95;;;2.38;;
43962;SDS011;29622;45.534;9.242;2023-05-10T14:33:05;8.82;;;2.83;;
43962;SDS011;29622;45.534;9.242;2023-05-10T14:38:05;5.65;;;2.60;;
43962;SDS011;29622;45.534;9.242;2023-05-10T14:43:06;6.03;;;2.75;;
43962;SDS011;29622;45.534;9.242;2023-05-10T14:48:06;5.15;;;2.60;;
43962;SDS011;29622;45.534;9.242;2023-05-10T14:53:11;4.82;;;2.67;;
43962;SDS011;29622;45.534;9.242;2023-05-10T14:58:11;4.85;;;2.90;;
43962;SDS011;29622;45.534;9.242;2023-05-10T15:03:12;4.10;;;2.10;;
43962;SDS011;29622;45.534;9.242;2023-05-10T15:08:13;4.55;;;2.25;;
43962;SDS011;29622;45.534;9.242;2023-05-10T15:13:13;5.72;;;2.13;;
43962;SDS011;29622;45.534;9.242;2023-05-10T15:18:14;8.60;;;3.53;;
43962;SDS011;29622;45.534;9.242;2023-05-10T15:23:14;6.93;;;2.00;;
43962;SDS011;29622;45.534;9.242;2023-05-10T15:28:15;3.30;;;1.90;;
43962;SDS011;29622;45.534;9.242;2023-05-10T15:33:16;4.00;;;2.08;;
43962;SDS011;29622;45.534;9.242;2023-05-10T15:38:17;3.95;;;1.95;;
43962;SDS011;29622;45.534;9.242;2023-05-10T15:43:17;4.57;;;2.78;;
43962;SDS011;29622;45.534;9.242;2023-05-10T15:48:18;6.47;;;2.47;;
43962;SDS011;29622;45.534;9.242;2023-05-10T15:53:19;12.65;;;2.40;;
43962;SDS011;29622;45.534;9.242;2023-05-10T15:58:19;4.50;;;2.20;;
43962;SDS011;29622;45.534;9.242;2023-05-10T16:03:20;4.10;;;1.85;;
43962;SDS011;29622;45.534;9.242;2023-05-10T16:08:21;3.40;;;2.22;;
43962;SDS011;29622;45.534;9.242;2023-05-10T16:13:21;15.07;;;3.63;;
43962;SDS011;29622;45.534;9.242;2023-05-10T16:18:22;2.83;;;1.60;;
43962;SDS011;29622;45.534;9.242;2023-05-10T16:23:23;2.92;;;1.60;;
43962;SDS011;29622;45.534;9.242;2023-05-10T16:28:24;3.70;;;1.92;;
43962;SDS011;29622;45.534;9.242;2023-05-10T16:33:24;3.40;;;1.90;;
43962;SDS011;29622;45.534;9.242;2023-05-10T16:38:25;2.58;;;1.80;;
43962;SDS011;29622;45.534;9.242;2023-05-10T16:43:25;2.75;;;1.80;;
43962;SDS011;29622;45.534;9.242;2023-05-10T16:48:26;5.47;;;1.63;;
43962;SDS011;29622;45.534;9.242;2023-05-10T16:53:27;2.55;;;1.40;;
43962;SDS011;29622;45.534;9.242;2023-05-10T16:58:28;6.45;;;2.30;;
43962;SDS011;29622;45.534;9.242;2023-05-10T17:03:28;3.10;;;1.73;;
43962;SDS011;29622;45.534;9.242;2023-05-10T17:08:29;10.73;;;2.92;;
43962;SDS011;29622;45.534;9.242;2023-05-10T17:13:29;4.88;;;2.40;;
43962;SDS011;29622;45.534;9.242;2023-05-10T17:18:30;5.03;;;2.38;;
43962;SDS011;29622;45.534;9.242;2023-05-10T17:23:31;4.13;;;2.47;;
43962;SDS011;29622;45.534;9.242;2023-05-10T17:28:32;5.40;;;2.40;;
43962;SDS011;29622;45.534;9.242;2023-05-10T17:33:32;10.63;;;4.60;;
43962;SDS011;29622;45.534;9.242;2023-05-10T17:38:33;4.15;;;2.22;;
43962;SDS011;29622;45.534;9.242;2023-05-10T17:43:34;3.85;;;1.60;;
43962;SDS011;29622;45.534;9.242;2023-05-10T17:48:35;8.30;;;2.10;;
43962;SDS011;29622;45.534;9.242;2023-05-10T17:53:36;4.97;;;2.28;;
43962;SDS011;29622;45.534;9.242;2023-05-10T17:58:38;13.18;;;3.63;;
43962;SDS011;29622;45.534;9.242;2023-05-10T18:03:39;3.25;;;2.38;;
43962;SDS011;29622;45.534;9.242;2023-05-10T18:08:40;10.10;;;2.92;;
43962;SDS011;29622;45.534;9.242;2023-05-10T18:13:40;9.38;;;2.10;;
43962;SDS011;29622;45.534;9.242;2023-05-10T18:18:41;6.07;;;2.30;;
43962;SDS011;29622;45.534;9.242;2023-05-10T18:23:42;6.32;;;2.90;;
43962;SDS011;29622;45.534;9.242;2023-05-10T18:28:42;8.15;;;2.45;;
43962;SDS011;29622;45.534;9.242;2023-05-10T18:33:43;6.88;;;2.35;;
43962;SDS011;29622;45.534;9.242;2023-05-10T18:38:44;9.25;;;3.47;;
43962;SDS011;29622;45.534;9.242;2023-05-10T18:43:44;5.20;;;3.10;;
43962;SDS011;29622;45.534;9.242;2023-05-10T18:48:45;5.97;;;3.40;;
43962;SDS011;29622;45.534;9.242;2023-05-10T18:53:47;4.15;;;3.00;;
43962;SDS011;29622;45.534;9.242;2023-05-10T18:58:48;6.82;;;2.70;;
43962;SDS011;29622;45.534;9.242;2023-05-10T19:03:49;5.00;;;2.88;;
43962;SDS011;29622;45.534;9.242;2023-05-10T19:08:49;7.22;;;3.78;;
43962;SDS011;29622;45.534;9.242;2023-05-10T19:13:50;5.47;;;2.92;;
43962;SDS011;29622;45.534;9.242;2023-05-10T19:18:51;6.68;;;3.00;;
43962;SDS011;29622;45.534;9.242;2023-05-10T19:23:51;6.22;;;2.92;;
43962;SDS011;29622;45.534;9.242;2023-05-10T19:28:52;6.35;;;2.72;;
43962;SDS011;29622;45.534;9.242;2023-05-10T19:33:53;5.07;;;2.42;;
43962;SDS011;29622;45.534;9.242;2023-05-10T19:38:54;4.50;;;2.63;;
43962;SDS011;29622;45.534;9.242;2023-05-10T19:43:55;5.80;;;3.60;;
43962;SDS011;29622;45.534;9.242;2023-05-10T19:48:55;7.57;;;3.15;;
43962;SDS011;29622;45.534;9.242;2023-05-10T19:53:57;7.05;;;2.85;;
43962;SDS011;29622;45.534;9.242;2023-05-10T19:58:58;14.70;;;3.33;;
43962;SDS011;29622;45.534;9.242;2023-05-10T20:03:58;15.73;;;3.47;;
43962;SDS011;29622;45.534;9.242;2023-05-10T20:08:59;6.47;;;3.03;;
43962;SDS011;29622;45.534;9.242;2023-05-10T20:14:00;7.15;;;3.35;;
43962;SDS011;29622;45.534;9.242;2023-05-10T20:19:00;6.32;;;4.13;;
43962;SDS011;29622;45.534;9.242;2023-05-10T20:24:01;10.88;;;3.28;;
43962;SDS011;29622;45.534;9.242;2023-05-10T20:29:02;8.07;;;4.22;;
43962;SDS011;29622;45.534;9.242;2023-05-10T20:34:03;5.55;;;3.45;;
43962;SDS011;29622;45.534;9.242;2023-05-10T20:39:03;5.93;;;2.95;;
43962;SDS011;29622;45.534;9.242;2023-05-10T20:44:04;6.40;;;3.90;;
43962;SDS011;29622;45.534;9.242;2023-05-10T20:49:07;7.93;;;3.50;;
43962;SDS011;29622;45.534;9.242;2023-05-10T20:54:07;7.60;;;3.35;;
43962;SDS011;29622;45.534;9.242;2023-05-10T20:59:08;10.23;;;3.28;;
43962;SDS011;29622;45.534;9.242;2023-05-10T21:04:10;6.28;;;3.70;;
43962;SDS011;29622;45.534;9.242;2023-05-10T21:09:11;6.63;;;4.55;;
43962;SDS011;29622;45.534;9.242;2023-05-10T21:14:11;8.02;;;4.63;;
43962;SDS011;29622;45.534;9.242;2023-05-10T21:19:12;6.50;;;3.17;;
43962;SDS011;29622;45.534;9.242;2023-05-10T21:24:13;5.82;;;3.53;;
43962;SDS011;29622;45.534;9.242;2023-05-10T21:29:13;10.55;;;5.45;;
43962;SDS011;29622;45.534;9.242;2023-05-10T21:34:14;5.70;;;2.72;;
43962;SDS011;29622;45.534;9.242;2023-05-10T21:39:16;6.35;;;3.10;;
43962;SDS011;29622;45.534;9.242;2023-05-10T21:44:17;8.18;;;5.53;;
43962;SDS011;29622;45.534;9.242;2023-05-10T21:49:18;9.00;;;5.28;;
43962;SDS011;29622;45.534;9.242;2023-05-10T21:54:18;5.13;;;2.55;;
43962;SDS011;29622;45.534;9.242;2023-05-10T21:59:19;8.07;;;5.18;;
43962;SDS011;29622;45.534;9.242;2023-05-10T22:04:20;9.95;;;6.28;;
43962;SDS011;29622;45.534;9.242;2023-05-10T22:09:21;8.70;;;5.90;;
43962;SDS011;29622;45.534;9.242;2023-05-10T22:14:23;8.00;;;5.50;;
43962;SDS011;29622;45.534;9.242;2023-05-10T22:19:24;10.63;;;6.43;;
43962;SDS011;29622;45.534;9.242;2023-05-10T22:24:24;8.18;;;3.55;;
43962;SDS011;29622;45.534;9.242;2023-05-10T22:29:25;9.13;;;5.97;;
43962;SDS011;29622;45.534;9.242;2023-05-10T22:34:26;4.40;;;2.60;;
43962;SDS011;29622;45.534;9.242;2023-05-10T22:39:26;4.68;;;2.63;;
43962;SDS011;29622;45.534;9.242;2023-05-10T22:44:27;8.68;;;5.72;;
43962;SDS011;29622;45.534;9.242;2023-05-10T22:49:28;10.68;;;6.07;;
43962;SDS011;29622;45.534;9.242;2023-05-10T22:54:28;5.75;;;3.80;;
43962;SDS011;29622;45.534;9.242;2023-05-10T22:59:29;4.00;;;2.50;;
43962;SDS011;29622;45.534;9.242;2023-05-10T23:04:30;9.40;;;6.32;;
43962;SDS011;29622;45.534;9.242;2023-05-10T23:09:31;14.32;;;6.72;;
43962;SDS011;29622;45.534;9.242;2023-05-10T23:14:32;12.38;;;8.00;;
43962;SDS011;29622;45.534;9.242;2023-05-10T23:19:32;12.60;;;8.80;;
43962;SDS011;29622;45.534;9.242;2023-05-10T23:24:33;19.00;;;9.32;;
43962;SDS011;29622;45.534;9.242;2023-05-10T23:29:34;13.70;;;9.50;;
43962;SDS011;29622;45.534;9.242;2023-05-10T23:34:34;20.38;;;9.70;;
43962;SDS011;29622;45.534;9.242;2023-05-10T23:39:35;24.35;;;11.98;;
43962;SDS011;29622;45.534;9.242;2023-05-10T23:44:36;19.95;;;11.68;;
43962;SDS011;29622;45.534;9.242;2023-05-10T23:49:36;14.95;;;10.75;;
43962;SDS011;29622;45.534;9.242;2023-05-10T23:54:37;20.27;;;11.32;;
43962;SDS011;29622;45.534;9.242;2023-05-10T23:59:38;6.05;;;3.60;;
